Nepton, Kentucky
Current Conditions -  °F | °C
As of 3:35 PM on Tuesday 25 Nov 2014 (Local Time) from KFGX Reporting Station
Clear Clear  
Wind Chill:   Ceiling: Unl
Heat Index:   Visibility: 10mi
Dew Point: -2°   Wind: 9mph
Humidity: 50%   Direction: 270°W
Pressure: 30.1"   Gusts: NA
Location:  38.4071°N, 83.873°W
Report Text: KFGX 252035Z AUTO 27008KT 10SM CLR 08/M02 A3010 RMK AO2 T00801020
Loading
Personal Weather Stations






























Interactive Weather Map New forecast layout! Learn more

10-Day Weather Forecast

Advertisements
Track Severe Weather on mobile